Terminal Aerodrome Forecast
Issued by NWS Melbourne, FL

Home | Current Version | Previous Version | Text Only | Print | Product List | Glossary On
Versions: 1 2 3 4 5 6 7 8 9 10 11 12
000
FTUS42 KMLB 291700
TAFVRB
TAF
KVRB 291740Z 2918/3018 09008KT P6SM SCT045
     FM300100 00000KT P6SM SCT250
     FM301400 29009KT P6SM FEW040 SCT250=

USA.gov is the U.S. government's official web portal to all federal, state and local government web resources and services.